Time;durP1;ratioP1;P1;durP2;ratioP2;P2;SDS_P1;SDS_P2;PMS_P1;PMS_P2;Temp;Humidity;BMP_temperature;BMP_pressure;BME280_temperature;BME280_humidity;BME280_pressure;Samples;Min_cycle;Max_cycle;Signal;HPM_P1;HPM_P2
2023/09/14 00:00:47;;;;;;;3.22;1.35;;;13.70;99.90;;;;;;5063878;28;20051;-85
2023/09/14 00:03:13;;;;;;;2.40;1.20;;;13.70;99.90;;;;;;5071512;28;20040;-85
2023/09/14 00:05:43;;;;;;;4.18;1.27;;;13.70;99.90;;;;;;5063755;28;20135;-86
2023/09/14 00:08:10;;;;;;;2.72;1.40;;;13.70;99.90;;;;;;5067593;28;20040;-85
2023/09/14 00:10:36;;;;;;;2.33;1.10;;;13.70;99.90;;;;;;5063742;28;20516;-86
2023/09/14 00:13:02;;;;;;;2.53;1.30;;;13.70;99.90;;;;;;5061014;28;20531;-85
2023/09/14 00:15:28;;;;;;;2.25;1.10;;;13.70;99.90;;;;;;5056220;28;20183;-85
2023/09/14 00:17:54;;;;;;;4.07;1.60;;;13.70;99.90;;;;;;5024181;28;20127;-85
2023/09/14 00:20:21;;;;;;;2.00;1.20;;;13.70;99.90;;;;;;5076877;28;20505;-86
2023/09/14 00:22:51;;;;;;;3.22;1.42;;;13.70;99.90;;;;;;5065691;28;20685;-85
2023/09/14 00:25:18;;;;;;;3.90;1.60;;;13.70;99.90;;;;;;5061526;28;20521;-86
2023/09/14 00:27:44;;;;;;;3.80;1.50;;;13.70;99.90;;;;;;5078487;28;20051;-85
2023/09/14 00:30:10;;;;;;;5.03;1.35;;;13.70;99.90;;;;;;5082831;28;20135;-85
2023/09/14 00:32:39;;;;;;;4.07;1.50;;;13.70;99.90;;;;;;5043912;28;20044;-85
2023/09/14 00:35:13;;;;;;;2.85;1.33;;;13.70;99.90;;;;;;5066353;28;20063;-85
2023/09/14 00:37:39;;;;;;;3.75;1.50;;;13.70;99.90;;;;;;5069650;28;20129;-85
2023/09/14 00:40:07;;;;;;;4.07;1.55;;;13.70;99.90;;;;;;5052936;28;20040;-85
2023/09/14 00:42:47;;;;;;;3.38;1.35;;;13.70;99.90;;;;;;5063183;28;20051;-85
2023/09/14 00:45:18;;;;;;;3.28;1.30;;;13.70;99.90;;;;;;5063401;28;20044;-85
2023/09/14 00:47:49;;;;;;;2.13;1.30;;;13.70;99.90;;;;;;5076227;28;20497;-86
2023/09/14 00:50:16;;;;;;;2.33;1.30;;;13.70;99.90;;;;;;5069807;28;20370;-85
2023/09/14 00:52:44;;;;;;;2.85;1.30;;;13.70;99.90;;;;;;5071309;28;20139;-85
2023/09/14 00:55:12;;;;;;;3.72;1.25;;;13.70;99.90;;;;;;5081687;28;20401;-85
2023/09/14 00:57:38;;;;;;;2.70;1.40;;;13.70;99.90;;;;;;5067376;28;20130;-85
2023/09/14 01:00:10;;;;;;;2.85;1.40;;;13.70;99.90;;;;;;5070406;28;20044;-86
2023/09/14 01:02:36;;;;;;;1.27;1.08;;;13.70;99.90;;;;;;5063181;28;20044;-85
2023/09/14 01:05:06;;;;;;;2.92;1.35;;;13.70;99.90;;;;;;5056718;28;20182;-85
2023/09/14 01:07:31;;;;;;;2.22;1.30;;;13.70;99.90;;;;;;5064397;28;20067;-85
2023/09/14 01:09:57;;;;;;;3.33;1.35;;;13.70;99.90;;;;;;5073224;28;20165;-85
2023/09/14 01:12:24;;;;;;;3.50;1.42;;;13.70;99.90;;;;;;5076427;28;20198;-85
2023/09/14 01:15:08;;;;;;;2.35;1.25;;;13.70;99.90;;;;;;5069080;28;20159;-85
2023/09/14 01:18:12;;;;;;;3.05;1.40;;;13.70;99.90;;;;;;5068533;28;20161;-85
2023/09/14 01:20:47;;;;;;;2.22;1.23;;;13.70;99.90;;;;;;5032046;28;20128;-85
2023/09/14 01:23:47;;;;;;;3.17;1.40;;;12.40;99.90;;;;;;5071196;28;20047;-85
2023/09/14 01:26:14;;;;;;;2.75;1.23;;;13.60;99.90;;;;;;5065177;28;20397;-86
2023/09/14 01:28:40;;;;;;;3.00;1.40;;;13.60;99.90;;;;;;5048396;28;20106;-85
2023/09/14 01:31:06;;;;;;;2.38;1.17;;;13.60;99.90;;;;;;5079725;28;20040;-86
2023/09/14 01:33:32;;;;;;;2.85;1.35;;;13.70;99.90;;;;;;5045872;28;20040;-86
2023/09/14 01:36:19;;;;;;;2.50;1.25;;;13.60;99.90;;;;;;5034311;28;20086;-85
2023/09/14 01:38:46;;;;;;;2.80;1.30;;;13.60;99.90;;;;;;5069437;28;20040;-85
2023/09/14 01:41:14;;;;;;;2.40;1.10;;;13.70;99.90;;;;;;5071709;28;20135;-85
2023/09/14 01:43:43;;;;;;;3.55;1.30;;;13.70;99.90;;;;;;5064421;28;20053;-85
2023/09/14 01:46:09;;;;;;;2.55;1.20;;;13.70;99.90;;;;;;5070979;28;20040;-87
2023/09/14 01:48:35;;;;;;;2.38;1.00;;;13.70;99.90;;;;;;5054607;28;20040;-85
2023/09/14 01:51:01;;;;;;;3.88;1.48;;;13.70;99.90;;;;;;5063328;28;20564;-85
2023/09/14 01:53:26;;;;;;;1.95;1.13;;;13.60;99.90;;;;;;5043161;28;20055;-85
2023/09/14 01:55:52;;;;;;;3.03;1.50;;;13.70;99.90;;;;;;5069071;28;20039;-86
2023/09/14 01:58:18;;;;;;;1.65;1.10;;;13.70;99.90;;;;;;5037190;28;20109;-85
2023/09/14 02:00:43;;;;;;;2.75;1.10;;;13.70;99.90;;;;;;5055372;28;20790;-85
2023/09/14 02:03:09;;;;;;;3.22;1.20;;;13.70;99.90;;;;;;5069213;28;20102;-85
2023/09/14 02:05:35;;;;;;;2.60;1.20;;;13.70;99.90;;;;;;5078296;28;20046;-85
2023/09/14 02:08:00;;;;;;;2.47;1.27;;;13.60;99.90;;;;;;5079457;28;20493;-85
2023/09/14 02:10:26;;;;;;;1.85;1.00;;;13.70;99.90;;;;;;5085179;28;20029;-85
2023/09/14 02:12:52;;;;;;;2.72;1.27;;;13.60;99.90;;;;;;5067994;28;20509;-85
2023/09/14 02:15:18;;;;;;;3.33;1.20;;;13.60;99.90;;;;;;5064256;28;20060;-85
2023/09/14 02:17:43;;;;;;;1.83;1.17;;;13.60;99.90;;;;;;5072608;28;20094;-85
2023/09/14 02:20:10;;;;;;;1.83;1.15;;;13.60;99.90;;;;;;5069858;28;20492;-85
2023/09/14 02:22:35;;;;;;;2.30;1.20;;;13.60;99.90;;;;;;5070355;28;20554;-85
2023/09/14 02:25:02;;;;;;;2.75;1.08;;;13.60;99.90;;;;;;5071298;28;20052;-85
2023/09/14 02:27:28;;;;;;;2.15;1.00;;;13.60;99.90;;;;;;5052610;28;20128;-85
2023/09/14 02:29:54;;;;;;;1.88;0.95;;;13.60;99.90;;;;;;5084309;28;20115;-86
2023/09/14 02:32:20;;;;;;;2.75;1.10;;;13.60;99.90;;;;;;5069696;28;20056;-85
2023/09/14 02:34:46;;;;;;;1.85;1.10;;;13.60;99.90;;;;;;5048142;28;20044;-85
2023/09/14 02:37:14;;;;;;;3.40;1.20;;;13.60;99.90;;;;;;5059020;28;20060;-85
2023/09/14 02:39:40;;;;;;;3.03;1.25;;;13.60;99.90;;;;;;5062087;28;20053;-85
2023/09/14 02:42:05;;;;;;;2.38;1.02;;;13.50;99.90;;;;;;5069279;28;20055;-85
2023/09/14 02:44:31;;;;;;;2.70;1.20;;;13.50;99.90;;;;;;5070789;28;20092;-85
2023/09/14 02:46:57;;;;;;;1.13;1.00;;;13.50;99.90;;;;;;5055571;28;20044;-85
2023/09/14 02:49:22;;;;;;;2.60;1.10;;;13.50;99.90;;;;;;5080396;28;20074;-85
2023/09/14 02:51:48;;;;;;;3.72;1.13;;;13.50;99.90;;;;;;5048046;28;20454;-85
2023/09/14 02:54:14;;;;;;;1.30;0.90;;;13.50;99.90;;;;;;5068232;28;20040;-85
2023/09/14 02:56:41;;;;;;;3.03;1.20;;;13.50;99.90;;;;;;5064355;28;20524;-85
2023/09/14 02:59:07;;;;;;;2.25;1.10;;;13.40;99.90;;;;;;5058413;28;20493;-86
2023/09/14 03:01:33;;;;;;;2.42;1.20;;;13.40;99.90;;;;;;5085634;28;20044;-85
2023/09/14 03:03:59;;;;;;;1.45;1.10;;;13.40;99.90;;;;;;5069771;28;20047;-85
2023/09/14 03:06:26;;;;;;;2.30;1.20;;;13.30;99.90;;;;;;5074786;28;20037;-85
2023/09/14 03:08:51;;;;;;;2.80;1.08;;;13.30;99.90;;;;;;5060261;28;20052;-85
2023/09/14 03:11:17;;;;;;;2.22;1.13;;;13.20;99.90;;;;;;5039368;28;20044;-85
2023/09/14 03:13:43;;;;;;;2.53;1.10;;;13.20;99.90;;;;;;5086715;28;20507;-85
2023/09/14 03:16:09;;;;;;;1.33;1.00;;;13.10;99.90;;;;;;5049953;28;20036;-85
2023/09/14 03:18:35;;;;;;;2.15;1.30;;;13.00;99.90;;;;;;5070562;28;20036;-85
2023/09/14 03:21:01;;;;;;;3.00;1.23;;;13.00;99.90;;;;;;5060713;28;20032;-86
2023/09/14 03:23:27;;;;;;;2.85;1.30;;;13.00;99.90;;;;;;5066512;28;20036;-86
2023/09/14 03:25:55;;;;;;;2.05;1.00;;;12.90;99.90;;;;;;5071981;28;20090;-85
2023/09/14 03:28:21;;;;;;;2.28;1.10;;;12.90;99.90;;;;;;5055433;28;20467;-85
2023/09/14 03:30:46;;;;;;;2.83;1.20;;;12.90;99.90;;;;;;5066475;28;20087;-85
2023/09/14 03:33:12;;;;;;;2.05;1.20;;;12.80;99.90;;;;;;5068029;28;20051;-85
2023/09/14 03:35:40;;;;;;;2.20;1.15;;;12.70;99.90;;;;;;5061752;28;20056;-85
2023/09/14 03:38:05;;;;;;;2.00;1.20;;;12.80;99.90;;;;;;5061188;28;20044;-85
2023/09/14 03:40:32;;;;;;;1.98;1.20;;;12.70;99.90;;;;;;5061212;28;20519;-85
2023/09/14 03:42:57;;;;;;;1.80;1.15;;;12.70;99.90;;;;;;5068341;28;20043;-85
2023/09/14 03:45:23;;;;;;;1.30;1.00;;;12.70;99.90;;;;;;5069415;28;20085;-86
2023/09/14 03:47:50;;;;;;;1.17;0.90;;;12.70;99.90;;;;;;5048689;28;20483;-86
2023/09/14 03:50:16;;;;;;;1.52;1.00;;;12.70;99.90;;;;;;5063552;28;20508;-86
2023/09/14 03:52:42;;;;;;;3.60;1.35;;;12.60;99.90;;;;;;5063208;28;20036;-85
2023/09/14 03:55:08;;;;;;;1.92;1.13;;;12.60;99.90;;;;;;5065512;28;20044;-85
2023/09/14 03:57:34;;;;;;;2.38;1.10;;;12.60;99.90;;;;;;5071071;28;20037;-86
2023/09/14 03:59:59;;;;;;;2.30;1.10;;;12.60;99.90;;;;;;5066858;28;20037;-85
2023/09/14 04:02:25;;;;;;;2.30;1.20;;;12.60;99.90;;;;;;5089353;28;20113;-85
2023/09/14 04:04:51;;;;;;;2.00;1.10;;;12.60;99.90;;;;;;5090216;28;20153;-85
2023/09/14 04:07:17;;;;;;;2.45;1.30;;;12.60;99.90;;;;;;5071691;28;20454;-86
2023/09/14 04:09:43;;;;;;;2.22;1.08;;;12.60;99.90;;;;;;5054777;28;20036;-85
2023/09/14 04:12:09;;;;;;;3.58;2.22;;;12.60;99.90;;;;;;5061303;28;20044;-85
2023/09/14 04:14:35;;;;;;;0.70;0.70;;;12.50;99.90;;;;;;5072425;28;20046;-85
2023/09/14 04:17:01;;;;;;;1.35;0.90;;;12.50;99.90;;;;;;5072871;28;20044;-85
2023/09/14 04:19:28;;;;;;;1.60;1.00;;;12.40;99.90;;;;;;5071833;28;20168;-85
2023/09/14 04:21:55;;;;;;;2.78;1.20;;;12.40;99.90;;;;;;5086239;28;20032;-85
2023/09/14 04:24:21;;;;;;;2.35;1.02;;;12.40;99.90;;;;;;5066454;28;20100;-85
2023/09/14 04:26:47;;;;;;;1.80;1.00;;;12.40;99.90;;;;;;5073219;28;20052;-85
2023/09/14 04:29:13;;;;;;;2.00;0.90;;;12.40;99.90;;;;;;5065732;28;20178;-86
2023/09/14 04:31:40;;;;;;;1.35;1.00;;;12.40;99.90;;;;;;5028012;28;21416;-86
2023/09/14 04:34:07;;;;;;;2.03;1.10;;;12.40;99.90;;;;;;5045009;28;20369;-85
2023/09/14 04:36:34;;;;;;;1.25;1.02;;;12.40;99.90;;;;;;5072364;28;20063;-85
2023/09/14 04:39:03;;;;;;;1.77;1.20;;;12.30;99.90;;;;;;5052719;28;20059;-85
2023/09/14 04:41:30;;;;;;;1.10;0.90;;;12.30;99.90;;;;;;5065329;28;20047;-85
2023/09/14 04:43:56;;;;;;;1.40;1.00;;;12.30;99.90;;;;;;5066045;28;20051;-85
2023/09/14 04:46:22;;;;;;;2.13;1.10;;;12.30;99.90;;;;;;5050288;28;20076;-85
2023/09/14 04:48:49;;;;;;;1.10;0.90;;;12.30;99.90;;;;;;5058569;28;20098;-85
2023/09/14 04:51:15;;;;;;;1.40;1.10;;;12.20;99.90;;;;;;5072745;28;20044;-86
2023/09/14 04:53:41;;;;;;;1.17;0.90;;;12.20;99.90;;;;;;5061892;28;20302;-85
2023/09/14 04:56:07;;;;;;;3.25;1.33;;;12.20;99.90;;;;;;5069437;28;20271;-86
2023/09/14 04:58:33;;;;;;;1.65;1.20;;;12.20;99.90;;;;;;5078712;28;20108;-85
2023/09/14 05:00:59;;;;;;;2.67;1.20;;;12.20;99.90;;;;;;5055821;28;20153;-85
2023/09/14 05:03:25;;;;;;;1.20;1.10;;;12.20;99.90;;;;;;5047049;28;20134;-85
2023/09/14 05:05:52;;;;;;;1.08;0.90;;;12.20;99.90;;;;;;5068061;28;20481;-85
2023/09/14 05:08:18;;;;;;;2.17;1.10;;;12.20;99.90;;;;;;5061508;28;20053;-85
2023/09/14 05:10:44;;;;;;;1.83;1.13;;;12.10;99.90;;;;;;5068491;28;20382;-85
2023/09/14 05:13:10;;;;;;;1.55;0.98;;;12.10;99.90;;;;;;5058540;28;20278;-85
2023/09/14 05:15:36;;;;;;;2.05;1.30;;;12.10;99.90;;;;;;5058373;28;20055;-85
2023/09/14 05:18:02;;;;;;;1.38;0.98;;;12.10;99.90;;;;;;5053637;28;20111;-85
2023/09/14 05:20:28;;;;;;;1.65;1.00;;;12.10;99.90;;;;;;5070840;28;20058;-85
2023/09/14 05:22:54;;;;;;;1.42;1.00;;;12.00;99.90;;;;;;5061818;28;20040;-86
2023/09/14 05:25:20;;;;;;;0.80;0.80;;;12.10;99.90;;;;;;5069518;28;20064;-85
2023/09/14 05:27:46;;;;;;;1.42;1.00;;;12.10;99.90;;;;;;5072402;28;20444;-85
2023/09/14 05:30:12;;;;;;;1.50;1.00;;;12.10;99.90;;;;;;5073407;28;20047;-85
2023/09/14 05:32:40;;;;;;;1.17;0.90;;;12.10;99.90;;;;;;5067634;28;20052;-85
2023/09/14 05:35:06;;;;;;;1.92;1.00;;;12.00;99.90;;;;;;5085746;28;20036;-85
2023/09/14 05:37:36;;;;;;;1.85;1.10;;;12.00;99.90;;;;;;5081320;28;20123;-85
2023/09/14 05:40:08;;;;;;;1.35;1.00;;;12.00;99.90;;;;;;5069945;28;20147;-85
2023/09/14 05:42:34;;;;;;;1.08;0.80;;;12.00;99.90;;;;;;5079420;28;20028;-85
2023/09/14 05:44:59;;;;;;;2.00;1.10;;;12.00;99.90;;;;;;5071401;28;20501;-85
2023/09/14 05:47:25;;;;;;;1.42;1.00;;;12.00;99.90;;;;;;5071037;28;20043;-85
2023/09/14 05:49:51;;;;;;;1.30;1.08;;;12.00;99.90;;;;;;5072877;28;20063;-85
2023/09/14 05:52:17;;;;;;;1.40;0.95;;;12.00;99.90;;;;;;5069302;28;20040;-85
2023/09/14 05:54:43;;;;;;;1.77;1.00;;;12.00;99.90;;;;;;5057126;28;20044;-85
2023/09/14 05:57:09;;;;;;;1.60;1.10;;;12.10;99.90;;;;;;5063887;28;20052;-85
2023/09/14 05:59:35;;;;;;;1.10;1.00;;;12.10;99.90;;;;;;5067392;28;20043;-85
2023/09/14 06:02:01;;;;;;;1.25;0.90;;;12.10;99.90;;;;;;5069398;28;20054;-85
2023/09/14 06:04:26;;;;;;;0.80;0.80;;;12.20;99.90;;;;;;5059790;28;20436;-85
2023/09/14 06:06:52;;;;;;;1.70;1.00;;;12.20;99.90;;;;;;5068881;28;20771;-85
2023/09/14 06:09:18;;;;;;;2.72;1.20;;;12.20;99.90;;;;;;5065914;28;20050;-85
2023/09/14 06:11:44;;;;;;;1.60;1.00;;;12.20;99.90;;;;;;5072318;28;20071;-85
2023/09/14 06:14:09;;;;;;;1.52;0.93;;;12.20;99.90;;;;;;5071283;28;20035;-85
2023/09/14 06:16:35;;;;;;;2.38;1.10;;;12.20;99.90;;;;;;5057655;28;20040;-85
2023/09/14 06:19:01;;;;;;;1.45;0.90;;;12.30;99.90;;;;;;5070890;28;20054;-85
2023/09/14 06:21:26;;;;;;;1.25;0.90;;;12.30;99.90;;;;;;5068676;28;20210;-85
2023/09/14 06:23:52;;;;;;;1.08;1.00;;;13.90;99.90;;;;;;5062640;28;20039;-85
2023/09/14 06:26:18;;;;;;;1.35;0.98;;;12.40;99.90;;;;;;5054808;28;20056;-85
2023/09/14 06:28:44;;;;;;;1.38;1.00;;;12.50;99.90;;;;;;5067597;28;20609;-85
2023/09/14 06:31:09;;;;;;;1.73;1.02;;;12.50;99.90;;;;;;5065992;28;20413;-85
2023/09/14 06:33:36;;;;;;;1.08;1.00;;;12.60;99.90;;;;;;5075831;28;20052;-85
2023/09/14 06:36:01;;;;;;;1.05;0.95;;;12.60;99.90;;;;;;5078858;28;20064;-85
2023/09/14 06:38:27;;;;;;;2.05;1.10;;;12.70;99.90;;;;;;5068522;28;20048;-85
2023/09/14 06:40:53;;;;;;;1.98;1.10;;;12.70;99.90;;;;;;5084559;28;20066;-85
2023/09/14 06:43:19;;;;;;;1.98;1.10;;;12.80;99.90;;;;;;5050131;28;20493;-85
2023/09/14 06:45:44;;;;;;;1.67;1.10;;;12.80;99.90;;;;;;5042979;28;20052;-85
2023/09/14 06:48:10;;;;;;;2.10;1.13;;;12.90;99.90;;;;;;5089465;28;20040;-85
2023/09/14 06:50:36;;;;;;;1.20;0.82;;;13.00;99.90;;;;;;5090051;28;20522;-85
2023/09/14 06:53:01;;;;;;;1.00;0.90;;;13.10;99.90;;;;;;5068330;28;20267;-85
2023/09/14 06:55:27;;;;;;;1.88;1.05;;;13.10;99.90;;;;;;5041062;28;20040;-85
2023/09/14 06:57:53;;;;;;;1.45;1.00;;;13.10;99.90;;;;;;5089692;28;20138;-85
2023/09/14 07:00:21;;;;;;;0.75;0.75;;;13.20;99.90;;;;;;5083480;28;20070;-85
2023/09/14 07:02:51;;;;;;;1.85;1.08;;;13.20;99.90;;;;;;5049245;28;20047;-85
2023/09/14 07:05:17;;;;;;;1.30;0.90;;;13.40;99.90;;;;;;5053058;28;20059;-85
2023/09/14 07:07:43;;;;;;;1.00;0.82;;;13.50;99.90;;;;;;5069148;28;20047;-85
2023/09/14 07:10:09;;;;;;;0.90;0.90;;;13.50;99.90;;;;;;5061840;28;20063;-85
2023/09/14 07:12:35;;;;;;;1.23;1.02;;;13.60;99.90;;;;;;5089613;28;20588;-85
2023/09/14 07:15:02;;;;;;;0.85;0.85;;;13.70;99.90;;;;;;5067919;28;20028;-85
2023/09/14 07:17:28;;;;;;;1.65;0.90;;;13.80;99.90;;;;;;5067053;28;20049;-85
2023/09/14 07:19:54;;;;;;;0.70;0.70;;;13.90;99.90;;;;;;5071994;28;20068;-85
2023/09/14 07:22:20;;;;;;;1.25;0.90;;;14.00;99.90;;;;;;5071728;28;20086;-85
2023/09/14 07:24:46;;;;;;;0.60;0.60;;;14.10;99.90;;;;;;5055127;28;20128;-85
2023/09/14 07:27:14;;;;;;;0.80;0.80;;;14.20;99.90;;;;;;5066630;28;20113;-85
2023/09/14 07:29:39;;;;;;;1.95;0.98;;;14.20;99.90;;;;;;5089224;28;20035;-85
2023/09/14 07:32:05;;;;;;;1.20;0.85;;;14.30;99.90;;;;;;5051768;28;20110;-85
2023/09/14 07:34:31;;;;;;;1.55;0.88;;;14.50;99.90;;;;;;5088368;28;20078;-85
2023/09/14 07:36:57;;;;;;;0.98;0.70;;;14.50;99.90;;;;;;5077796;28;20197;-85
2023/09/14 07:39:23;;;;;;;0.95;0.75;;;14.60;99.90;;;;;;5069186;28;20047;-85
2023/09/14 07:41:48;;;;;;;0.77;0.77;;;14.70;99.90;;;;;;5070182;28;20051;-85
2023/09/14 07:44:14;;;;;;;2.08;0.95;;;14.90;99.90;;;;;;5070143;28;20135;-84
2023/09/14 07:46:40;;;;;;;0.90;0.90;;;14.90;99.90;;;;;;5083921;28;20041;-86
2023/09/14 07:49:06;;;;;;;2.38;1.10;;;15.00;99.90;;;;;;5067546;28;20043;-85
2023/09/14 07:51:32;;;;;;;2.13;1.02;;;15.20;99.90;;;;;;5066792;28;20044;-86
2023/09/14 07:53:59;;;;;;;1.98;0.90;;;15.30;99.90;;;;;;5049544;28;20181;-85
2023/09/14 07:56:25;;;;;;;1.08;0.90;;;15.50;99.90;;;;;;5068904;28;20202;-85
2023/09/14 07:58:53;;;;;;;3.15;1.40;;;15.60;99.90;;;;;;5060775;28;20217;-85
2023/09/14 08:01:19;;;;;;;1.27;1.00;;;15.70;99.90;;;;;;5066439;28;20551;-85
2023/09/14 08:03:49;;;;;;;3.28;1.27;;;15.90;99.90;;;;;;5078625;28;20270;-85
2023/09/14 08:06:19;;;;;;;1.88;1.13;;;16.00;99.90;;;;;;5048208;28;20051;-85
2023/09/14 08:08:45;;;;;;;1.98;0.95;;;16.10;99.90;;;;;;5065101;28;20089;-85
2023/09/14 08:11:11;;;;;;;1.67;1.10;;;16.30;99.90;;;;;;5088169;28;20071;-85
2023/09/14 08:13:37;;;;;;;2.10;1.00;;;16.40;99.90;;;;;;5068342;28;20483;-85
2023/09/14 08:16:04;;;;;;;0.90;0.90;;;16.50;99.90;;;;;;5071744;28;20132;-85
2023/09/14 08:18:30;;;;;;;1.90;1.00;;;16.70;99.90;;;;;;5064413;28;20044;-86
2023/09/14 08:20:56;;;;;;;2.17;1.00;;;16.70;99.90;;;;;;5063378;28;20514;-85
2023/09/14 08:23:21;;;;;;;1.60;0.85;;;16.70;99.90;;;;;;5081459;28;20125;-86
2023/09/14 08:25:48;;;;;;;4.22;1.13;;;16.80;99.90;;;;;;5067879;28;20048;-85
2023/09/14 08:28:15;;;;;;;2.55;1.10;;;17.00;99.90;;;;;;5045547;28;20049;-86
2023/09/14 08:30:42;;;;;;;2.60;1.10;;;17.20;99.90;;;;;;5069149;28;20072;-85
2023/09/14 08:33:08;;;;;;;0.85;0.80;;;17.30;99.90;;;;;;5065974;28;20262;-86
2023/09/14 08:35:36;;;;;;;2.42;1.08;;;17.50;99.90;;;;;;5013426;28;1467029;-85
2023/09/14 08:38:07;;;;;;;2.47;1.10;;;17.60;99.90;;;;;;5051416;28;20040;-86
2023/09/14 08:40:34;;;;;;;1.42;1.05;;;17.80;99.90;;;;;;5033058;28;20087;-86
2023/09/14 08:43:08;;;;;;;1.08;0.93;;;17.90;99.90;;;;;;5026679;28;20037;-86
2023/09/14 08:45:37;;;;;;;0.80;0.77;;;17.90;99.90;;;;;;5070909;28;20123;-86
2023/09/14 08:48:04;;;;;;;2.55;1.02;;;18.00;99.90;;;;;;5062229;28;20451;-86
2023/09/14 08:50:32;;;;;;;1.98;0.90;;;17.90;99.90;;;;;;5069844;28;20072;-86
2023/09/14 08:52:59;;;;;;;1.27;0.80;;;17.90;99.90;;;;;;5065911;28;20036;-85
2023/09/14 08:55:37;;;;;;;1.45;0.90;;;17.90;99.90;;;;;;5056661;28;20040;-85
2023/09/14 08:58:04;;;;;;;1.58;0.82;;;18.00;99.90;;;;;;5077134;28;20123;-85
2023/09/14 09:00:31;;;;;;;0.93;0.77;;;18.00;99.90;;;;;;5091571;28;20039;-85
2023/09/14 09:02:57;;;;;;;1.23;0.85;;;18.00;99.90;;;;;;5053596;28;20048;-86
2023/09/14 09:05:25;;;;;;;1.75;0.82;;;18.10;99.90;;;;;;5090538;28;20036;-86
2023/09/14 09:07:52;;;;;;;1.33;0.70;;;18.10;99.90;;;;;;5068942;28;20037;-85
2023/09/14 09:10:26;;;;;;;0.73;0.63;;;18.20;99.90;;;;;;5066262;28;20040;-85
2023/09/14 09:13:04;;;;;;;0.90;0.70;;;18.30;99.90;;;;;;5049462;28;20431;-85
2023/09/14 09:15:36;;;;;;;1.15;0.68;;;18.30;99.90;;;;;;5057134;28;20127;-87
2023/09/14 09:18:09;;;;;;;0.98;0.82;;;18.40;99.90;;;;;;5053221;28;20040;-86
2023/09/14 09:20:37;;;;;;;1.20;0.77;;;18.40;99.90;;;;;;5071084;28;20044;-85
2023/09/14 09:23:04;;;;;;;1.10;0.70;;;18.50;99.90;;;;;;5072997;28;20115;-86
2023/09/14 09:25:42;;;;;;;0.60;0.50;;;18.50;99.90;;;;;;5073113;28;20497;-85
2023/09/14 09:28:07;;;;;;;1.90;0.90;;;18.60;99.90;;;;;;5071671;28;20040;-86
2023/09/14 09:30:35;;;;;;;0.73;0.60;;;18.70;99.90;;;;;;5064592;28;20104;-86
2023/09/14 09:33:01;;;;;;;2.45;0.93;;;18.80;99.90;;;;;;5068173;28;20119;-86
2023/09/14 09:35:29;;;;;;;1.95;0.90;;;18.90;99.90;;;;;;5073140;28;20122;-86
2023/09/14 09:37:57;;;;;;;1.67;0.85;;;18.90;99.90;;;;;;5072779;28;20056;-86
2023/09/14 09:40:33;;;;;;;1.15;0.70;;;18.90;99.90;;;;;;5083970;28;20543;-86
2023/09/14 09:43:07;;;;;;;1.33;0.80;;;19.00;99.90;;;;;;5086651;28;20056;-86
2023/09/14 09:45:34;;;;;;;1.70;0.70;;;19.00;99.90;;;;;;5056303;28;20044;-86
2023/09/14 09:48:03;;;;;;;1.77;0.85;;;19.10;99.90;;;;;;5072893;28;20123;-86
2023/09/14 09:50:29;;;;;;;1.98;0.90;;;19.10;99.90;;;;;;5066478;28;20062;-86
2023/09/14 09:52:55;;;;;;;0.90;0.70;;;19.20;99.90;;;;;;5060867;28;20044;-86
2023/09/14 09:55:25;;;;;;;0.90;0.80;;;19.10;99.90;;;;;;5068500;28;20048;-86
2023/09/14 09:57:59;;;;;;;0.88;0.68;;;19.40;99.90;;;;;;5067282;28;20424;-87
2023/09/14 10:00:29;;;;;;;2.28;0.90;;;19.50;99.90;;;;;;5072450;28;20052;-86
2023/09/14 10:02:55;;;;;;;1.05;0.90;;;19.50;99.90;;;;;;5062514;28;20547;-86
2023/09/14 10:05:31;;;;;;;2.08;0.90;;;19.40;99.90;;;;;;5072267;28;20052;-86
2023/09/14 10:07:58;;;;;;;2.70;1.10;;;19.40;99.90;;;;;;5072428;28;20048;-86
2023/09/14 10:10:26;;;;;;;2.30;1.60;;;19.30;99.90;;;;;;5072554;28;20044;-86
2023/09/14 10:12:53;;;;;;;5.65;1.63;;;19.30;99.90;;;;;;5071785;28;20412;-87
2023/09/14 10:15:20;;;;;;;5.07;1.50;;;19.40;99.90;;;;;;5064783;28;20055;-86
2023/09/14 10:17:53;;;;;;;3.65;1.23;;;19.40;99.90;;;;;;5066856;28;20102;-86
2023/09/14 10:20:20;;;;;;;3.20;1.40;;;19.50;99.90;;;;;;5069389;28;20048;-87
2023/09/14 10:22:47;;;;;;;3.08;1.20;;;19.60;99.90;;;;;;5083475;28;20119;-86
2023/09/14 10:25:15;;;;;;;3.88;1.50;;;19.70;99.90;;;;;;5052165;28;20040;-87
2023/09/14 10:27:42;;;;;;;2.53;1.17;;;19.60;99.90;;;;;;5047967;28;20072;-86
2023/09/14 10:30:13;;;;;;;2.88;1.40;;;19.60;99.90;;;;;;5068889;28;20051;-86
2023/09/14 10:32:40;;;;;;;4.00;1.40;;;19.80;99.90;;;;;;5035347;28;20454;-86
2023/09/14 10:35:07;;;;;;;4.43;1.30;;;19.80;99.90;;;;;;5057099;28;20071;-86
2023/09/14 10:37:35;;;;;;;3.95;1.30;;;19.80;99.90;;;;;;5070078;28;20512;-86
2023/09/14 10:40:04;;;;;;;3.35;1.20;;;19.50;99.90;;;;;;5063313;28;20044;-86
2023/09/14 10:42:30;;;;;;;4.68;1.40;;;19.30;99.90;;;;;;5067530;28;20500;-86
2023/09/14 10:44:56;;;;;;;3.40;1.30;;;19.20;99.90;;;;;;5050379;28;20048;-86
2023/09/14 10:47:27;;;;;;;2.95;1.20;;;19.10;99.90;;;;;;5068916;28;20122;-86
2023/09/14 10:49:54;;;;;;;3.45;1.20;;;19.10;99.90;;;;;;5069492;28;20508;-86
2023/09/14 10:52:24;;;;;;;4.78;1.30;;;19.20;99.90;;;;;;5070554;28;20078;-86
2023/09/14 10:54:50;;;;;;;2.95;1.17;;;19.10;99.90;;;;;;5070423;28;20078;-86
2023/09/14 10:57:25;;;;;;;3.90;1.20;;;19.10;99.90;;;;;;5071406;28;20101;-86
2023/09/14 10:59:58;;;;;;;2.85;1.20;;;19.00;99.90;;;;;;5071109;28;20127;-86
2023/09/14 11:02:36;;;;;;;4.00;1.48;;;19.00;99.90;;;;;;5051494;28;20048;-86
2023/09/14 11:05:25;;;;;;;4.80;2.38;;;19.10;99.90;;;;;;5068517;28;20512;-87
2023/09/14 11:08:04;;;;;;;2.13;1.13;;;19.20;99.90;;;;;;5071841;28;20058;-86
2023/09/14 11:10:31;;;;;;;2.88;1.50;;;19.20;99.90;;;;;;5055459;28;20062;-86
2023/09/14 11:13:18;;;;;;;4.05;2.33;;;19.10;99.90;;;;;;5089905;28;20040;-85
2023/09/14 11:15:46;;;;;;;2.25;1.17;;;19.00;99.90;;;;;;5067625;28;20040;-85
2023/09/14 11:18:49;;;;;;;3.13;1.20;;;18.90;99.90;;;;;;5071821;28;20055;-86
2023/09/14 11:21:32;;;;;;;2.40;1.00;;;18.80;99.90;;;;;;5066078;28;20094;-86
2023/09/14 11:23:59;;;;;;;3.58;1.20;;;18.90;99.90;;;;;;5071746;28;20059;-86
2023/09/14 11:26:44;;;;;;;3.10;1.27;;;19.10;99.90;;;;;;5067928;28;20128;-86
2023/09/14 11:29:11;;;;;;;4.28;1.40;;;19.20;99.90;;;;;;5068446;28;20101;-86
2023/09/14 11:31:37;;;;;;;2.47;1.00;;;19.30;99.90;;;;;;5050826;28;20048;-86
2023/09/14 11:34:10;;;;;;;3.13;1.20;;;19.50;99.90;;;;;;5052839;28;20040;-86
2023/09/14 11:36:37;;;;;;;2.85;1.10;;;19.70;99.90;;;;;;5067590;28;20048;-86
2023/09/14 11:39:11;;;;;;;3.47;1.30;;;19.80;99.90;;;;;;5067270;28;20295;-86
2023/09/14 11:41:59;;;;;;;3.22;1.08;;;19.90;99.90;;;;;;5071113;28;20044;-86
2023/09/14 11:44:29;;;;;;;2.47;1.13;;;20.10;99.90;;;;;;5071240;28;20122;-86
2023/09/14 11:46:57;;;;;;;3.97;1.25;;;20.30;99.90;;;;;;5068680;28;20405;-86
2023/09/14 11:49:28;;;;;;;3.88;1.40;;;20.40;99.90;;;;;;5086401;28;20040;-86
2023/09/14 11:51:54;;;;;;;3.85;1.30;;;20.40;99.90;;;;;;5069681;28;20046;-87
2023/09/14 11:54:20;;;;;;;3.28;1.25;;;20.20;99.90;;;;;;5071386;28;20123;-86
2023/09/14 11:56:48;;;;;;;1.58;1.00;;;20.00;99.90;;;;;;5070752;28;20590;-86
2023/09/14 11:59:30;;;;;;;2.58;1.20;;;19.80;99.90;;;;;;5069257;28;20063;-86
2023/09/14 12:01:57;;;;;;;3.10;1.20;;;19.70;99.90;;;;;;5089109;28;20202;-86
2023/09/14 12:04:27;;;;;;;4.68;1.75;;;19.50;99.90;;;;;;5069482;28;20124;-86
2023/09/14 12:06:54;;;;;;;2.30;1.00;;;19.40;99.90;;;;;;5088808;28;20127;-86
2023/09/14 12:09:34;;;;;;;3.38;1.35;;;19.30;99.90;;;;;;5068943;28;20052;-86
2023/09/14 12:11:59;;;;;;;3.45;1.38;;;19.30;99.90;;;;;;5067407;28;20044;-86
2023/09/14 12:14:34;;;;;;;3.75;1.30;;;19.50;99.90;;;;;;5059429;28;20044;-86
2023/09/14 12:17:00;;;;;;;3.15;1.30;;;19.70;99.90;;;;;;5070494;28;20048;-86
2023/09/14 12:19:26;;;;;;;2.40;1.15;;;19.70;99.90;;;;;;5069252;28;20101;-86
2023/09/14 12:21:52;;;;;;;3.42;1.40;;;19.80;99.90;;;;;;5053242;28;20047;-86
2023/09/14 12:24:18;;;;;;;4.45;1.45;;;19.80;99.90;;;;;;5081570;28;20560;-87
2023/09/14 12:26:44;;;;;;;3.20;1.30;;;19.90;99.90;;;;;;5072606;28;20113;-87
2023/09/14 12:29:10;;;;;;;5.07;1.38;;;20.10;99.90;;;;;;5055150;28;20036;-87
2023/09/14 12:31:37;;;;;;;3.17;1.10;;;20.20;99.90;;;;;;5070254;28;20393;-87
2023/09/14 12:34:03;;;;;;;3.50;1.38;;;20.40;99.90;;;;;;5090942;28;20048;-87
2023/09/14 12:36:30;;;;;;;4.70;1.52;;;20.50;99.90;;;;;;5052959;28;20048;-86
2023/09/14 12:38:56;;;;;;;2.95;1.40;;;20.50;99.90;;;;;;5068361;28;20040;-87
2023/09/14 12:41:23;;;;;;;2.60;1.20;;;20.60;99.90;;;;;;5067976;28;20139;-86
2023/09/14 12:43:49;;;;;;;3.33;1.40;;;20.70;99.90;;;;;;5070707;28;20059;-86
2023/09/14 12:46:15;;;;;;;3.08;1.20;;;20.70;99.90;;;;;;5067430;28;20115;-87
2023/09/14 12:48:42;;;;;;;3.72;1.20;;;20.70;99.90;;;;;;5048818;28;20044;-87
2023/09/14 12:51:08;;;;;;;2.50;1.20;;;20.60;99.90;;;;;;5085046;28;20465;-87